Time;durP1;ratioP1;P1;durP2;ratioP2;P2;SDS_P1;SDS_P2;PMS_P1;PMS_P2;Temp;Humidity;BMP_temperature;BMP_pressure;BME280_temperature;BME280_humidity;BME280_pressure;Samples;Min_cycle;Max_cycle;Signal;HPM_P1;HPM_P2
2022/05/15 00:00:42;;;;;;;3.50;3.10;;;;;;;;;;5074237;28;20228;-84
2022/05/15 00:03:15;;;;;;;3.50;2.97;;;;;;;;;;5074959;28;20221;-84
2022/05/15 00:05:43;;;;;;;3.77;3.33;;;;;;;;;;5074829;28;20263;-84
2022/05/15 00:08:14;;;;;;;5.13;2.80;;;;;;;;;;5075223;28;20217;-84
2022/05/15 00:10:43;;;;;;;5.60;3.23;;;;;;;;;;5075138;28;20225;-83
2022/05/15 00:13:11;;;;;;;5.83;3.37;;;;;;;;;;5074367;28;20205;-84
2022/05/15 00:15:39;;;;;;;3.87;3.27;;;;;;;;;;5074704;28;20197;-84
2022/05/15 00:18:07;;;;;;;4.60;2.97;;;;;;;;;;5074269;28;20206;-84
2022/05/15 00:20:34;;;;;;;3.40;3.10;;;;;;;;;;5074646;28;20690;-84
2022/05/15 00:23:01;;;;;;;3.17;2.57;;;;;;;;;;5074901;28;20308;-85
2022/05/15 00:25:28;;;;;;;3.83;3.07;;;;;;;;;;5075178;28;20215;-84
2022/05/15 00:27:55;;;;;;;3.07;2.80;;;;;;;;;;5075261;28;20236;-84
2022/05/15 00:30:24;;;;;;;4.93;2.97;;;;;;;;;;5073939;28;20697;-84
2022/05/15 00:32:51;;;;;;;4.23;3.30;;;;;;;;;;5074779;28;20236;-84
2022/05/15 00:35:18;;;;;;;4.97;3.10;;;;;;;;;;5073898;28;20256;-84
2022/05/15 00:37:45;;;;;;;6.13;3.30;;;;;;;;;;5074452;28;20208;-84
2022/05/15 00:40:14;;;;;;;6.30;3.23;;;;;;;;;;5072893;28;20243;-84
2022/05/15 00:42:42;;;;;;;5.47;3.20;;;;;;;;;;5074908;28;20300;-85
2022/05/15 00:45:09;;;;;;;4.83;2.80;;;;;;;;;;5073431;28;20239;-84
2022/05/15 00:47:38;;;;;;;3.17;2.87;;;;;;;;;;5074364;28;20212;-84
2022/05/15 00:50:06;;;;;;;10.07;3.00;;;;;;;;;;5073511;28;20237;-85
2022/05/15 00:52:34;;;;;;;4.57;2.77;;;;;;;;;;5074075;28;20210;-84
2022/05/15 00:55:05;;;;;;;5.13;3.20;;;;;;;;;;5073356;28;20237;-85
2022/05/15 00:57:35;;;;;;;4.73;3.60;;;;;;;;;;5074309;28;20634;-84
2022/05/15 01:00:04;;;;;;;4.23;2.97;;;;;;;;;;5073328;28;20237;-84
2022/05/15 01:02:36;;;;;;;4.17;3.20;;;;;;;;;;5073913;28;20201;-84
2022/05/15 01:05:05;;;;;;;8.53;3.57;;;;;;;;;;5067228;28;20975;-85
2022/05/15 01:07:32;;;;;;;5.43;3.30;;;;;;;;;;5059420;28;20206;-85
2022/05/15 01:10:00;;;;;;;6.67;3.30;;;;;;;;;;5073092;28;20237;-84
2022/05/15 01:12:27;;;;;;;3.50;3.00;;;;;;;;;;5073812;28;20229;-84
2022/05/15 01:14:55;;;;;;;4.77;3.63;;;;;;;;;;5073220;28;20565;-84
2022/05/15 01:17:22;;;;;;;4.33;3.50;;;;;;;;;;5073702;28;20205;-85
2022/05/15 01:19:49;;;;;;;4.13;3.30;;;;;;;;;;5073102;28;20248;-85
2022/05/15 01:22:17;;;;;;;5.03;3.00;;;;;;;;;;5073808;28;20201;-84
2022/05/15 01:24:45;;;;;;;3.97;3.00;;;;;;;;;;5072629;28;20240;-85
2022/05/15 01:27:13;;;;;;;7.00;2.93;;;;;;;;;;5073919;28;20205;-85
2022/05/15 01:29:42;;;;;;;5.43;2.80;;;;;;;;;;5072958;28;20244;-84
2022/05/15 01:32:10;;;;;;;5.80;3.80;;;;;;;;;;5073750;28;20224;-84
2022/05/15 01:34:37;;;;;;;4.00;3.27;;;;;;;;;;5072847;28;20236;-84
2022/05/15 01:37:04;;;;;;;5.10;3.43;;;;;;;;;;5073542;28;20566;-84
2022/05/15 01:39:33;;;;;;;4.33;3.80;;;;;;;;;;5072606;28;20244;-85
2022/05/15 01:42:00;;;;;;;4.70;3.77;;;;;;;;;;5073690;28;20197;-84
2022/05/15 01:44:27;;;;;;;4.87;3.73;;;;;;;;;;5081316;28;20247;-84
2022/05/15 01:46:55;;;;;;;5.03;3.80;;;;;;;;;;5073242;28;20204;-84
2022/05/15 01:49:22;;;;;;;6.20;3.63;;;;;;;;;;5072746;28;20280;-84
2022/05/15 01:51:49;;;;;;;4.20;3.73;;;;;;;;;;5073628;28;20254;-84
2022/05/15 01:54:16;;;;;;;11.17;3.30;;;;;;;;;;5076482;28;20240;-83
2022/05/15 01:56:45;;;;;;;6.40;3.83;;;;;;;;;;5080274;28;20275;-84
2022/05/15 01:59:12;;;;;;;6.70;3.30;;;;;;;;;;5072519;28;20245;-85
2022/05/15 02:01:40;;;;;;;3.33;3.03;;;;;;;;;;5074461;28;20208;-84
2022/05/15 02:04:07;;;;;;;3.47;3.17;;;;;;;;;;5077756;28;20243;-84
2022/05/15 02:06:35;;;;;;;6.00;3.33;;;;;;;;;;5073104;28;20267;-84
2022/05/15 02:09:02;;;;;;;5.93;3.30;;;;;;;;;;5072602;28;20240;-83
2022/05/15 02:11:29;;;;;;;8.67;4.10;;;;;;;;;;5073309;28;20236;-84
2022/05/15 02:13:58;;;;;;;3.33;3.03;;;;;;;;;;5072060;28;20709;-83
2022/05/15 02:16:25;;;;;;;5.27;3.17;;;;;;;;;;5072879;28;20193;-84
2022/05/15 02:18:52;;;;;;;3.40;3.10;;;;;;;;;;5072012;28;20233;-84
2022/05/15 02:21:19;;;;;;;5.50;3.27;;;;;;;;;;5073058;28;20212;-84
2022/05/15 02:23:46;;;;;;;4.97;3.40;;;;;;;;;;5071938;28;20229;-84
2022/05/15 02:26:13;;;;;;;6.13;3.20;;;;;;;;;;5072741;28;20576;-84
2022/05/15 02:28:40;;;;;;;4.53;3.57;;;;;;;;;;5072133;28;20596;-85
2022/05/15 02:31:08;;;;;;;5.07;3.20;;;;;;;;;;5072416;28;20701;-84
2022/05/15 02:33:36;;;;;;;6.03;3.17;;;;;;;;;;5071781;28;20697;-84
2022/05/15 02:36:03;;;;;;;4.03;3.20;;;;;;;;;;5072822;28;20209;-83
2022/05/15 02:38:31;;;;;;;4.23;3.63;;;;;;;;;;5071772;28;20244;-84
2022/05/15 02:40:58;;;;;;;5.00;3.20;;;;;;;;;;5072375;28;20212;-84
2022/05/15 02:43:25;;;;;;;7.57;3.80;;;;;;;;;;5071668;28;20240;-84
2022/05/15 02:45:52;;;;;;;5.73;3.73;;;;;;;;;;5073544;28;20287;-85
2022/05/15 02:51:05;;;;;;;3.57;3.27;;;;;;;;;;5073810;28;20212;-84
2022/05/15 02:53:32;;;;;;;3.73;3.37;;;;;;;;;;5072470;28;20224;-84
2022/05/15 02:56:00;;;;;;;6.47;3.20;;;;;;;;;;5072840;28;20216;-84
2022/05/15 02:58:28;;;;;;;3.53;3.10;;;;;;;;;;5072134;28;20265;-84
2022/05/15 03:00:56;;;;;;;3.63;3.00;;;;;;;;;;5060403;28;20198;-84
2022/05/15 03:03:24;;;;;;;3.43;2.93;;;;;;;;;;5053069;28;20599;-84
2022/05/15 03:05:52;;;;;;;3.40;3.10;;;;;;;;;;5056255;28;20229;-85
2022/05/15 03:08:19;;;;;;;4.37;2.90;;;;;;;;;;5055799;28;20233;-84
2022/05/15 03:10:46;;;;;;;3.67;3.37;;;;;;;;;;5056447;28;20212;-84
2022/05/15 03:13:13;;;;;;;3.87;3.00;;;;;;;;;;5055819;28;20228;-84
2022/05/15 03:15:40;;;;;;;3.07;2.77;;;;;;;;;;5056524;28;20205;-85
2022/05/15 03:18:07;;;;;;;3.30;3.00;;;;;;;;;;5055701;28;20209;-84
2022/05/15 03:20:35;;;;;;;3.40;3.10;;;;;;;;;;5056521;28;20268;-83
2022/05/15 03:23:02;;;;;;;4.37;3.53;;;;;;;;;;5055650;28;20209;-84
2022/05/15 03:25:31;;;;;;;3.43;3.20;;;;;;;;;;5056221;28;20205;-84
2022/05/15 03:27:58;;;;;;;4.83;3.57;;;;;;;;;;5055479;28;20213;-84
2022/05/15 03:30:25;;;;;;;3.70;3.40;;;;;;;;;;5055892;28;20209;-84
2022/05/15 03:32:52;;;;;;;4.47;3.77;;;;;;;;;;5055379;28;20236;-84
2022/05/15 03:35:20;;;;;;;4.43;4.03;;;;;;;;;;5055222;28;20240;-84
2022/05/15 03:37:48;;;;;;;4.47;4.07;;;;;;;;;;5055665;28;20217;-84
2022/05/15 03:40:15;;;;;;;4.63;3.80;;;;;;;;;;5055452;28;20233;-84
2022/05/15 03:42:43;;;;;;;4.00;3.60;;;;;;;;;;5055639;28;20206;-85
2022/05/15 03:45:10;;;;;;;4.97;3.53;;;;;;;;;;5054741;28;20237;-84
2022/05/15 03:47:38;;;;;;;3.87;3.30;;;;;;;;;;5055978;28;20205;-84
2022/05/15 03:50:07;;;;;;;4.27;3.87;;;;;;;;;;5054907;28;20234;-84
2022/05/15 03:52:34;;;;;;;4.30;3.90;;;;;;;;;;5055135;28;20226;-84
2022/05/15 03:55:03;;;;;;;3.87;3.57;;;;;;;;;;5054577;28;20368;-83
2022/05/15 03:57:30;;;;;;;6.77;4.20;;;;;;;;;;5055484;28;20206;-84
2022/05/15 03:59:57;;;;;;;4.03;3.63;;;;;;;;;;5054574;28;20241;-84
2022/05/15 04:02:24;;;;;;;3.90;3.57;;;;;;;;;;5055676;28;20286;-84
2022/05/15 04:04:51;;;;;;;5.63;3.73;;;;;;;;;;5054547;28;20859;-85
2022/05/15 04:07:18;;;;;;;4.37;3.63;;;;;;;;;;5055261;28;20210;-84
2022/05/15 04:09:45;;;;;;;4.07;3.63;;;;;;;;;;5054601;28;20633;-83
2022/05/15 04:12:14;;;;;;;5.10;3.80;;;;;;;;;;5055140;28;20231;-84
2022/05/15 04:14:41;;;;;;;7.67;3.73;;;;;;;;;;5053393;28;20249;-84
2022/05/15 04:17:08;;;;;;;4.27;3.77;;;;;;;;;;5055238;28;20214;-84
2022/05/15 04:19:36;;;;;;;3.37;3.17;;;;;;;;;;5054520;28;20609;-84
2022/05/15 04:22:05;;;;;;;5.40;3.87;;;;;;;;;;5055170;28;20213;-84
2022/05/15 04:24:32;;;;;;;9.13;3.87;;;;;;;;;;5054437;28;20230;-84
2022/05/15 04:27:00;;;;;;;5.90;4.27;;;;;;;;;;5055049;28;20234;-84
2022/05/15 04:29:28;;;;;;;5.53;3.80;;;;;;;;;;5054288;28;20736;-84
2022/05/15 04:31:56;;;;;;;4.13;3.70;;;;;;;;;;5062370;28;20720;-84
2022/05/15 04:34:24;;;;;;;5.60;3.80;;;;;;;;;;5054196;28;20299;-84
2022/05/15 04:36:51;;;;;;;9.00;4.00;;;;;;;;;;5054621;28;20212;-84
2022/05/15 04:39:18;;;;;;;6.80;4.20;;;;;;;;;;5054006;28;20246;-84
2022/05/15 04:41:45;;;;;;;5.33;4.10;;;;;;;;;;5054441;28;20198;-84
2022/05/15 04:44:13;;;;;;;4.63;4.23;;;;;;;;;;5053500;28;20240;-83
2022/05/15 04:46:41;;;;;;;5.30;3.97;;;;;;;;;;5054488;28;20213;-84
2022/05/15 04:49:08;;;;;;;4.67;4.27;;;;;;;;;;5054165;28;20242;-84
2022/05/15 04:51:35;;;;;;;8.63;4.97;;;;;;;;;;5054653;28;20205;-84
2022/05/15 04:54:02;;;;;;;9.03;4.97;;;;;;;;;;5053509;28;20601;-84
2022/05/15 04:56:29;;;;;;;5.67;5.00;;;;;;;;;;5054331;28;20696;-84
2022/05/15 04:58:56;;;;;;;5.00;4.60;;;;;;;;;;5054034;28;20241;-84
2022/05/15 05:01:25;;;;;;;7.73;5.00;;;;;;;;;;5054547;28;20194;-85
2022/05/15 05:03:54;;;;;;;6.30;5.73;;;;;;;;;;5053775;28;20236;-85
2022/05/15 05:06:22;;;;;;;6.97;5.73;;;;;;;;;;5054343;28;20206;-84
2022/05/15 05:08:49;;;;;;;8.40;6.30;;;;;;;;;;5053509;28;20244;-84
2022/05/15 05:11:16;;;;;;;9.43;6.27;;;;;;;;;;5054134;28;20212;-84
2022/05/15 05:13:43;;;;;;;9.10;6.33;;;;;;;;;;5053395;28;20607;-83
2022/05/15 05:16:10;;;;;;;8.20;7.13;;;;;;;;;;5054013;28;20578;-84
2022/05/15 05:18:37;;;;;;;8.23;6.43;;;;;;;;;;5053199;28;20230;-83
2022/05/15 05:21:06;;;;;;;9.30;6.70;;;;;;;;;;5053773;28;20194;-84
2022/05/15 05:23:34;;;;;;;11.83;6.97;;;;;;;;;;5053370;28;20253;-84
2022/05/15 05:26:01;;;;;;;11.60;7.57;;;;;;;;;;5053463;28;20199;-84
2022/05/15 05:28:28;;;;;;;10.57;7.57;;;;;;;;;;5053494;28;20257;-84
2022/05/15 05:30:56;;;;;;;8.77;6.73;;;;;;;;;;5053752;28;20206;-84
2022/05/15 05:33:23;;;;;;;8.73;6.63;;;;;;;;;;5052960;28;20261;-84
2022/05/15 05:35:50;;;;;;;9.63;6.90;;;;;;;;;;5053461;28;20272;-83
2022/05/15 05:38:19;;;;;;;12.17;7.00;;;;;;;;;;5053107;28;20250;-84
2022/05/15 05:40:47;;;;;;;7.00;6.30;;;;;;;;;;5053447;28;20225;-84
2022/05/15 05:43:14;;;;;;;9.67;7.83;;;;;;;;;;5052847;28;20183;-84
2022/05/15 05:45:41;;;;;;;6.23;5.63;;;;;;;;;;5053091;28;20225;-84
2022/05/15 05:48:08;;;;;;;9.97;6.90;;;;;;;;;;5052838;28;20572;-84
2022/05/15 05:50:37;;;;;;;6.63;6.03;;;;;;;;;;5052934;28;20636;-84
2022/05/15 05:53:04;;;;;;;6.97;6.13;;;;;;;;;;5051304;28;20222;-84
2022/05/15 05:55:33;;;;;;;7.13;5.50;;;;;;;;;;5053215;28;20194;-83
2022/05/15 05:58:00;;;;;;;7.23;5.30;;;;;;;;;;5052662;28;20533;-84
2022/05/15 06:00:29;;;;;;;10.50;5.77;;;;;;;;;;5047433;28;20206;-84
2022/05/15 06:04:39;;;;;;;8.47;5.03;;;;;;;;;;5047103;28;20666;-84
2022/05/15 06:05:43;;;;;;;7.07;4.67;;;;;;;;;;5051296;28;20665;-84
2022/05/15 06:08:10;;;;;;;8.00;5.20;;;;;;;;;;5051519;28;20299;-84
2022/05/15 06:10:39;;;;;;;5.40;4.90;;;;;;;;;;5051647;28;20675;-84
2022/05/15 06:13:06;;;;;;;5.57;4.53;;;;;;;;;;5051697;28;20225;-83
2022/05/15 06:15:33;;;;;;;7.93;4.70;;;;;;;;;;5052013;28;20686;-83
2022/05/15 06:18:00;;;;;;;5.90;4.47;;;;;;;;;;5051384;28;20209;-84
2022/05/15 06:20:27;;;;;;;4.73;4.23;;;;;;;;;;5051790;28;20206;-83
2022/05/15 06:22:54;;;;;;;5.93;4.87;;;;;;;;;;5051421;28;20202;-83
2022/05/15 06:25:21;;;;;;;5.20;4.50;;;;;;;;;;5036737;28;20234;-83
2022/05/15 06:27:50;;;;;;;6.60;4.50;;;;;;;;;;5031361;28;20218;-83
2022/05/15 06:30:18;;;;;;;6.40;5.00;;;;;;;;;;5031548;28;20602;-83
2022/05/15 06:32:45;;;;;;;5.80;4.73;;;;;;;;;;5031479;28;20231;-83
2022/05/15 06:35:14;;;;;;;4.60;4.17;;;;;;;;;;5046429;28;20229;-83
2022/05/15 06:37:41;;;;;;;5.83;4.77;;;;;;;;;;5047809;28;20776;-83
2022/05/15 06:40:09;;;;;;;5.60;4.17;;;;;;;;;;5050999;28;20606;-83
2022/05/15 06:42:36;;;;;;;7.13;3.87;;;;;;;;;;5051475;28;20197;-83
2022/05/15 06:45:06;;;;;;;6.00;4.10;;;;;;;;;;5051135;28;20234;-84
2022/05/15 06:47:34;;;;;;;5.50;3.97;;;;;;;;;;5051326;28;20278;-84
2022/05/15 06:50:01;;;;;;;5.40;4.13;;;;;;;;;;5050851;28;20245;-84
2022/05/15 06:52:28;;;;;;;7.03;3.77;;;;;;;;;;5051607;28;20230;-84
2022/05/15 06:54:56;;;;;;;4.10;3.33;;;;;;;;;;5050680;28;20238;-84
2022/05/15 06:57:28;;;;;;;4.43;3.27;;;;;;;;;;5050889;28;20209;-84
2022/05/15 06:59:56;;;;;;;3.73;3.43;;;;;;;;;;5050552;28;20230;-84
2022/05/15 07:02:25;;;;;;;5.60;3.00;;;;;;;;;;5051344;28;20241;-84
2022/05/15 07:04:52;;;;;;;3.80;3.40;;;;;;;;;;5050808;28;20291;-84
2022/05/15 07:07:19;;;;;;;7.83;3.17;;;;;;;;;;5051087;28;20580;-85
2022/05/15 07:09:47;;;;;;;4.40;3.30;;;;;;;;;;5051099;28;20237;-84
2022/05/15 07:12:14;;;;;;;2.77;2.57;;;;;;;;;;5051266;28;20214;-84
2022/05/15 07:14:41;;;;;;;4.30;3.60;;;;;;;;;;5050637;28;20233;-85
2022/05/15 07:17:08;;;;;;;4.05;3.05;;;;;;;;;;5051636;28;20198;-87
2022/05/15 07:19:37;;;;;;;4.70;3.20;;;;;;;;;;5050577;28;20242;-85
2022/05/15 07:22:04;;;;;;;4.68;3.08;;;;;;;;;;5051671;28;20199;-84
2022/05/15 07:24:31;;;;;;;6.97;3.35;;;;;;;;;;5050405;28;20237;-85
2022/05/15 07:26:58;;;;;;;5.10;3.00;;;;;;;;;;5051112;28;20632;-86
2022/05/15 07:29:26;;;;;;;3.17;2.50;;;;;;;;;;5050743;28;20238;-85
2022/05/15 07:31:54;;;;;;;5.22;2.80;;;;;;;;;;5051370;28;20205;-85
2022/05/15 07:34:21;;;;;;;3.60;2.70;;;;;;;;;;5050676;28;20311;-85
2022/05/15 07:36:52;;;;;;;5.25;2.50;;;;;;;;;;5050360;28;20238;-85
2022/05/15 07:39:20;;;;;;;4.80;2.60;;;;;;;;;;5050928;28;20238;-86
2022/05/15 07:41:47;;;;;;;6.22;2.40;;;;;;;;;;5051287;28;20195;-86
2022/05/15 07:44:14;;;;;;;5.88;2.70;;;;;;;;;;5050741;28;20237;-85
2022/05/15 07:46:42;;;;;;;4.07;2.75;;;;;;;;;;5050968;28;20638;-85
2022/05/15 07:49:09;;;;;;;3.13;2.45;;;;;;;;;;5051576;28;20300;-86
2022/05/15 07:51:37;;;;;;;5.00;2.42;;;;;;;;;;5055179;28;20217;-86
2022/05/15 07:54:05;;;;;;;3.97;2.45;;;;;;;;;;5054332;28;20234;-86
2022/05/15 07:56:32;;;;;;;2.65;2.45;;;;;;;;;;5054616;28;20213;-86
2022/05/15 07:58:59;;;;;;;5.22;2.38;;;;;;;;;;5054849;28;20667;-86
2022/05/15 08:01:26;;;;;;;5.05;2.40;;;;;;;;;;5055357;28;20575;-86
2022/05/15 08:03:53;;;;;;;4.47;2.15;;;;;;;;;;5054122;28;20241;-86
2022/05/15 08:09:07;;;;;;;8.57;2.75;;;;;;;;;;5054322;28;20247;-86
2022/05/15 08:11:36;;;;;;;2.55;2.05;;;;;;;;;;5052019;28;20210;-85
2022/05/15 08:14:08;;;;;;;3.63;2.10;;;;;;;;;;5050582;28;20238;-86
2022/05/15 08:16:36;;;;;;;3.88;2.53;;;;;;;;;;5053616;28;20213;-86
2022/05/15 08:24:33;;;;;;;4.32;2.20;;;;;;;;;;5023359;28;20316;-86
2022/05/15 08:27:00;;;;;;;2.22;1.98;;;;;;;;;;5054589;28;20218;-86
2022/05/15 08:29:28;;;;;;;2.85;2.20;;;;;;;;;;5054914;28;20238;-86
2022/05/15 08:31:55;;;;;;;4.72;2.20;;;;;;;;;;5055083;28;20206;-86
2022/05/15 08:34:22;;;;;;;4.63;2.17;;;;;;;;;;5054154;28;20243;-87
2022/05/15 08:36:51;;;;;;;4.93;2.78;;;;;;;;;;5054737;28;20230;-87
2022/05/15 08:39:19;;;;;;;4.28;2.08;;;;;;;;;;5054827;28;20248;-85
2022/05/15 08:41:49;;;;;;;4.70;2.33;;;;;;;;;;5054812;28;20209;-87
2022/05/15 08:44:18;;;;;;;2.42;2.22;;;;;;;;;;5054913;28;20631;-87
2022/05/15 08:47:02;;;;;;;9.13;2.50;;;;;;;;;;5072497;28;20192;-87
2022/05/15 08:49:32;;;;;;;5.00;2.38;;;;;;;;;;5077646;28;20230;-87
2022/05/15 08:52:01;;;;;;;4.38;2.20;;;;;;;;;;5056799;28;20206;-87
2022/05/15 08:54:29;;;;;;;3.70;2.03;;;;;;;;;;5053640;28;20233;-87
2022/05/15 08:56:58;;;;;;;3.95;1.80;;;;;;;;;;5053870;28;20202;-87
2022/05/15 08:59:27;;;;;;;3.85;1.90;;;;;;;;;;5053589;28;20238;-87
2022/05/15 09:01:55;;;;;;;2.78;2.33;;;;;;;;;;5047347;28;20222;-87
2022/05/15 09:04:23;;;;;;;3.05;2.28;;;;;;;;;;5053259;28;20230;-86
2022/05/15 09:06:58;;;;;;;4.70;2.00;;;;;;;;;;5054031;28;20205;-87
2022/05/15 09:09:30;;;;;;;2.65;2.42;;;;;;;;;;5053381;28;20241;-88
2022/05/15 09:12:03;;;;;;;3.13;1.90;;;;;;;;;;5053655;28;20674;-87
2022/05/15 09:14:39;;;;;;;4.03;2.20;;;;;;;;;;5052380;28;20320;-86
2022/05/15 09:17:14;;;;;;;3.17;1.83;;;;;;;;;;5052824;28;20685;-87
2022/05/15 09:19:41;;;;;;;4.88;2.10;;;;;;;;;;5052388;28;20709;-88
2022/05/15 09:22:09;;;;;;;3.47;1.90;;;;;;;;;;5053393;28;20206;-87
2022/05/15 09:24:39;;;;;;;3.20;1.80;;;;;;;;;;5052417;28;20230;-87
2022/05/15 09:27:17;;;;;;;5.55;1.98;;;;;;;;;;5052742;28;20206;-87
2022/05/15 09:29:52;;;;;;;4.00;2.25;;;;;;;;;;5052304;28;20246;-87
2022/05/15 09:32:36;;;;;;;2.97;1.70;;;;;;;;;;5052878;28;20177;-87
2022/05/15 09:35:04;;;;;;;3.05;1.80;;;;;;;;;;5052387;28;20234;-87
2022/05/15 09:40:21;;;;;;;6.93;2.20;;;;;;;;;;5052484;28;20312;-87
2022/05/15 09:45:40;;;;;;;3.92;1.80;;;;;;;;;;5053453;28;20220;-87
2022/05/15 09:48:12;;;;;;;3.03;2.10;;;;;;;;;;5052273;28;20202;-87
2022/05/15 09:50:41;;;;;;;3.80;1.75;;;;;;;;;;5053233;28;20534;-87
2022/05/15 09:53:08;;;;;;;3.63;1.92;;;;;;;;;;5042850;28;20264;-89
2022/05/15 09:55:35;;;;;;;3.33;1.63;;;;;;;;;;5059133;28;20212;-87
2022/05/15 09:58:05;;;;;;;1.98;1.60;;;;;;;;;;5073175;28;20213;-87
2022/05/15 10:00:33;;;;;;;4.38;2.47;;;;;;;;;;5073768;28;20217;-87
2022/05/15 10:03:03;;;;;;;3.63;1.85;;;;;;;;;;5084761;28;20220;-87
2022/05/15 10:05:31;;;;;;;4.20;3.00;;;;;;;;;;5075923;28;20205;-88
2022/05/15 10:08:01;;;;;;;5.25;2.10;;;;;;;;;;5075411;28;20244;-88
2022/05/15 10:10:31;;;;;;;4.80;2.30;;;;;;;;;;5076350;28;20232;-88
2022/05/15 10:13:00;;;;;;;3.08;1.90;;;;;;;;;;5074045;28;20189;-88
2022/05/15 10:15:32;;;;;;;3.45;1.83;;;;;;;;;;5074888;28;20229;-88
2022/05/15 10:18:01;;;;;;;2.50;1.55;;;;;;;;;;5074804;28;20196;-88
2022/05/15 10:20:30;;;;;;;4.72;1.90;;;;;;;;;;5075236;28;20212;-88
2022/05/15 10:23:00;;;;;;;3.10;1.80;;;;;;;;;;5074561;28;20728;-89
2022/05/15 10:25:38;;;;;;;2.88;1.77;;;;;;;;;;5077518;28;20209;-88
2022/05/15 10:28:11;;;;;;;4.25;1.38;;;;;;;;;;5084015;28;20200;-89
2022/05/15 10:30:44;;;;;;;4.72;1.70;;;;;;;;;;5075339;28;20186;-89
2022/05/15 10:33:16;;;;;;;2.38;1.48;;;;;;;;;;5074985;28;20189;-89
2022/05/15 10:35:47;;;;;;;2.03;1.83;;;;;;;;;;5075292;28;20181;-88
2022/05/15 10:38:23;;;;;;;3.92;1.67;;;;;;;;;;5075216;28;20264;-88
2022/05/15 10:40:54;;;;;;;3.08;1.60;;;;;;;;;;5074422;28;20205;-89
2022/05/15 10:43:34;;;;;;;3.47;1.40;;;;;;;;;;5073602;28;20713;-89
2022/05/15 10:46:07;;;;;;;1.58;1.45;;;;;;;;;;5074372;28;20193;-89
2022/05/15 10:48:42;;;;;;;2.17;1.67;;;;;;;;;;5073787;28;20243;-88
2022/05/15 10:51:14;;;;;;;2.80;1.50;;;;;;;;;;5073878;28;20189;-89
2022/05/15 10:59:39;;;;;;;1.90;1.00;;;;;;;;;;5068425;28;20358;-88
2022/05/15 11:02:17;;;;;;;1.63;1.23;;;;;;;;;;5074630;28;20194;-90
2022/05/15 11:04:47;;;;;;;2.35;1.60;;;;;;;;;;5074139;28;20236;-90
2022/05/15 11:07:21;;;;;;;3.15;1.52;;;;;;;;;;5075786;28;20223;-90
2022/05/15 11:09:55;;;;;;;1.90;1.38;;;;;;;;;;5073892;28;20682;-90
2022/05/15 11:12:26;;;;;;;3.53;1.50;;;;;;;;;;5074877;28;20675;-89
2022/05/15 11:14:57;;;;;;;4.53;1.50;;;;;;;;;;5073767;28;20237;-89
2022/05/15 11:17:30;;;;;;;2.95;1.42;;;;;;;;;;5074491;28;20721;-89
2022/05/15 11:19:59;;;;;;;4.03;1.20;;;;;;;;;;5074720;28;20247;-90
2022/05/15 11:22:31;;;;;;;2.83;1.23;;;;;;;;;;5074714;28;20206;-89
2022/05/15 11:25:00;;;;;;;2.72;1.55;;;;;;;;;;5077698;28;20251;-90
2022/05/15 11:27:30;;;;;;;2.45;1.63;;;;;;;;;;5079039;28;20228;-91
2022/05/15 11:29:59;;;;;;;1.75;1.17;;;;;;;;;;5076996;28;20240;-90
2022/05/15 11:32:33;;;;;;;3.33;1.52;;;;;;;;;;5078064;28;20192;-89
2022/05/15 11:35:12;;;;;;;2.67;1.55;;;;;;;;;;5077559;28;20271;-89
2022/05/15 11:37:43;;;;;;;2.03;1.50;;;;;;;;;;5079039;28;20322;-90
2022/05/15 11:40:11;;;;;;;3.72;1.17;;;;;;;;;;5078219;28;20547;-90
2022/05/15 11:42:38;;;;;;;1.70;1.15;;;;;;;;;;5078605;28;20205;-90
2022/05/15 11:45:24;;;;;;;1.77;1.50;;;;;;;;;;5077894;28;20469;-90
2022/05/15 11:48:02;;;;;;;3.05;1.60;;;;;;;;;;5077866;28;20200;-90
2022/05/15 11:50:30;;;;;;;2.72;1.27;;;;;;;;;;5077014;28;20689;-90
2022/05/15 11:53:06;;;;;;;1.52;1.42;;;;;;;;;;5076408;28;20221;-91
2022/05/15 11:55:42;;;;;;;2.35;1.58;;;;;;;;;;5077023;28;20205;-91
2022/05/15 11:58:23;;;;;;;5.97;1.60;;;;;;;;;;5077629;28;20192;-89
2022/05/15 12:01:00;;;;;;;5.38;1.90;;;;;;;;;;5077614;28;20220;-90
2022/05/15 12:03:57;;;;;;;4.78;1.48;;;;;;;;;;5074352;28;20229;-90
2022/05/15 12:06:27;;;;;;;2.45;1.38;;;;;;;;;;4993924;28;20193;-86
2022/05/15 12:09:15;;;;;;;3.17;1.58;;;;;;;;;;5056693;28;20232;-89
2022/05/15 12:11:42;;;;;;;2.35;1.65;;;;;;;;;;5074912;28;20216;-89
2022/05/15 12:14:29;;;;;;;5.25;1.40;;;;;;;;;;5074352;28;20229;-90
2022/05/15 12:16:59;;;;;;;2.78;1.25;;;;;;;;;;5076629;28;20209;-91
2022/05/15 12:19:29;;;;;;;4.13;1.50;;;;;;;;;;5076261;28;20229;-91
2022/05/15 12:22:00;;;;;;;2.90;1.40;;;;;;;;;;5076569;28;20850;-92
2022/05/15 12:24:31;;;;;;;2.17;1.80;;;;;;;;;;5076729;28;20240;-88
2022/05/15 12:27:02;;;;;;;3.03;1.42;;;;;;;;;;5045617;28;20238;-89
2022/05/15 12:29:40;;;;;;;2.47;1.58;;;;;;;;;;5038653;28;20235;-87
2022/05/15 12:32:08;;;;;;;4.07;1.70;;;;;;;;;;5049170;28;20584;-87
2022/05/15 12:34:42;;;;;;;2.83;1.92;;;;;;;;;;5060128;28;20244;-89
2022/05/15 12:37:13;;;;;;;2.63;2.17;;;;;;;;;;5059163;28;20194;-88
2022/05/15 12:39:42;;;;;;;4.53;2.08;;;;;;;;;;5056337;28;20685;-89
2022/05/15 12:42:10;;;;;;;2.78;1.35;;;;;;;;;;5055164;28;20198;-90
2022/05/15 12:44:38;;;;;;;2.00;1.30;;;;;;;;;;5054828;28;20233;-89
2022/05/15 12:47:06;;;;;;;2.92;1.38;;;;;;;;;;5054690;28;20209;-91
2022/05/15 12:49:35;;;;;;;2.00;1.52;;;;;;;;;;5054115;28;20242;-91
2022/05/15 12:52:14;;;;;;;1.52;1.30;;;;;;;;;;5054453;28;20224;-89
2022/05/15 12:54:42;;;;;;;5.55;1.60;;;;;;;;;;5054115;28;20230;-91
2022/05/15 12:57:11;;;;;;;2.75;1.50;;;;;;;;;;5054319;28;20213;-89
2022/05/15 12:59:40;;;;;;;1.70;1.30;;;;;;;;;;5054377;28;20241;-90
2022/05/15 13:02:14;;;;;;;2.05;1.58;;;;;;;;;;5054723;28;20212;-90
2022/05/15 13:04:46;;;;;;;2.60;1.55;;;;;;;;;;5053586;28;20234;-90
2022/05/15 13:07:14;;;;;;;2.30;1.23;;;;;;;;;;5055082;28;20179;-90
2022/05/15 13:09:41;;;;;;;1.90;1.70;;;;;;;;;;5054897;28;20234;-88
2022/05/15 13:12:15;;;;;;;3.28;1.38;;;;;;;;;;5054558;28;20202;-88
2022/05/15 13:14:47;;;;;;;4.82;1.60;;;;;;;;;;5054015;28;20268;-87
2022/05/15 13:17:20;;;;;;;2.85;1.88;;;;;;;;;;5055068;28;20198;-87
2022/05/15 13:19:48;;;;;;;3.15;1.40;;;;;;;;;;5054210;28;20653;-88
2022/05/15 13:22:20;;;;;;;2.97;1.58;;;;;;;;;;5054944;28;20194;-87
2022/05/15 13:24:49;;;;;;;3.60;1.60;;;;;;;;;;5065130;28;20232;-88
2022/05/15 13:27:16;;;;;;;2.15;1.42;;;;;;;;;;5057550;28;20194;-87
2022/05/15 13:29:44;;;;;;;2.08;1.50;;;;;;;;;;5059067;28;20240;-87
2022/05/15 13:32:14;;;;;;;2.28;1.35;;;;;;;;;;5059331;28;20237;-88
2022/05/15 13:34:41;;;;;;;4.05;1.52;;;;;;;;;;5055782;28;20698;-87
2022/05/15 13:37:26;;;;;;;2.70;1.60;;;;;;;;;;5054219;28;20206;-87
2022/05/15 13:45:26;;;;;;;2.78;1.60;;;;;;;;;;5052728;28;20209;-87
2022/05/15 13:48:00;;;;;;;3.92;1.40;;;;;;;;;;5052710;28;20202;-87
2022/05/15 13:50:37;;;;;;;3.08;1.50;;;;;;;;;;5053208;28;20253;-87
2022/05/15 13:53:22;;;;;;;3.72;1.30;;;;;;;;;;5060136;28;20245;-86
2022/05/15 13:55:52;;;;;;;3.92;1.48;;;;;;;;;;5053726;28;20210;-87
2022/05/15 13:58:19;;;;;;;3.15;1.48;;;;;;;;;;5052820;28;20766;-87
2022/05/15 14:01:01;;;;;;;1.83;1.30;;;;;;;;;;5053262;28;20205;-87
2022/05/15 14:03:29;;;;;;;3.28;1.65;;;;;;;;;;5052403;28;20585;-87
2022/05/15 14:06:14;;;;;;;1.45;1.30;;;;;;;;;;5053470;28;20206;-87
2022/05/15 14:08:55;;;;;;;1.23;1.08;;;;;;;;;;5053250;28;20234;-87
2022/05/15 14:11:23;;;;;;;2.10;1.30;;;;;;;;;;5053662;28;20186;-87
2022/05/15 14:13:52;;;;;;;2.85;1.88;;;;;;;;;;5053365;28;20268;-87
2022/05/15 14:16:21;;;;;;;1.92;1.45;;;;;;;;;;5053302;28;20230;-87
2022/05/15 14:18:48;;;;;;;2.70;1.63;;;;;;;;;;5052168;28;20234;-87
2022/05/15 14:21:16;;;;;;;2.47;1.63;;;;;;;;;;5053114;28;20206;-87
2022/05/15 14:23:44;;;;;;;3.92;1.60;;;;;;;;;;5052321;28;20599;-87
2022/05/15 14:26:12;;;;;;;6.30;1.85;;;;;;;;;;5052582;28;20213;-87
2022/05/15 14:28:40;;;;;;;3.95;1.58;;;;;;;;;;5051804;28;20230;-87
2022/05/15 14:31:08;;;;;;;3.00;2.03;;;;;;;;;;5052094;28;20206;-87
2022/05/15 14:33:36;;;;;;;3.40;1.50;;;;;;;;;;5051995;28;20244;-87
2022/05/15 14:36:04;;;;;;;2.85;1.83;;;;;;;;;;5052065;28;20229;-87
2022/05/15 14:38:32;;;;;;;3.65;1.85;;;;;;;;;;5051764;28;20234;-87
2022/05/15 14:40:59;;;;;;;4.10;1.58;;;;;;;;;;5052563;28;20209;-87
2022/05/15 14:43:26;;;;;;;1.80;1.40;;;;;;;;;;5051374;28;20234;-86
2022/05/15 14:45:57;;;;;;;2.38;1.25;;;;;;;;;;5052276;28;20256;-87
2022/05/15 14:48:26;;;;;;;5.30;1.50;;;;;;;;;;5051710;28;20244;-86
2022/05/15 14:50:54;;;;;;;2.58;1.55;;;;;;;;;;5052826;28;20222;-87
2022/05/15 14:53:23;;;;;;;3.17;1.52;;;;;;;;;;5051773;28;20240;-87
2022/05/15 14:56:09;;;;;;;2.10;1.80;;;;;;;;;;5053730;28;20233;-87
2022/05/15 14:58:38;;;;;;;7.68;1.50;;;;;;;;;;5041916;28;20234;-87
2022/05/15 15:01:07;;;;;;;2.83;1.73;;;;;;;;;;5050022;28;20214;-87
2022/05/15 15:03:34;;;;;;;3.28;1.85;;;;;;;;;;5050564;28;20236;-86
2022/05/15 15:06:03;;;;;;;3.67;1.95;;;;;;;;;;5032298;28;20207;-87
2022/05/15 15:08:31;;;;;;;4.63;1.63;;;;;;;;;;5031470;28;20235;-86
2022/05/15 15:11:09;;;;;;;5.15;1.50;;;;;;;;;;5036657;28;20207;-89
2022/05/15 15:13:36;;;;;;;2.05;1.85;;;;;;;;;;5036856;28;20746;-85
2022/05/15 15:16:03;;;;;;;2.25;1.52;;;;;;;;;;5040322;28;20222;-87
2022/05/15 15:18:34;;;;;;;4.85;1.80;;;;;;;;;;5040950;28;20230;-86
2022/05/15 15:21:02;;;;;;;2.30;1.40;;;;;;;;;;5049173;28;20208;-86
2022/05/15 15:23:30;;;;;;;1.63;1.48;;;;;;;;;;5048391;28;20241;-87